Time;durP1;ratioP1;P1;durP2;ratioP2;P2;SDS_P1;SDS_P2;PMS_P1;PMS_P2;Temp;Humidity;BMP_temperature;BMP_pressure;BME280_temperature;BME280_humidity;BME280_pressure;Samples;Min_cycle;Max_cycle;Signal;HPM_P1;HPM_P2
2022/10/25 00:00:04;;;;;;;;;;;;;;;;;;5093963;28;1985;-76
2022/10/25 00:02:38;;;;;;;;;;;;;;;;;;5094261;28;683;-75
2022/10/25 00:05:04;;;;;;;;;;;;;;;;;;5094106;28;1072;-76
2022/10/25 00:07:31;;;;;;;;;;;;;;;;;;5093893;28;1047;-76
2022/10/25 00:09:57;;;;;;;;;;;;;;;;;;5093290;28;1332;-75
2022/10/25 00:12:23;;;;;;;;;;;;;;;;;;5093754;28;969;-76
2022/10/25 00:14:51;;;;;;;;;;;;;;;;;;5093669;28;1128;-76
2022/10/25 00:17:17;;;;;;;;;;;;;;;;;;5093728;28;1122;-75
2022/10/25 00:19:43;;;;;;;;;;;;;;;;;;5093608;28;1914;-77
2022/10/25 00:22:09;;;;;;;;;;;;;;;;;;5093182;28;818;-76
2022/10/25 00:24:35;;;;;;;;;;;;;;;;;;5093547;28;1067;-77
2022/10/25 00:27:02;;;;;;;;;;;;;;;;;;5091586;28;1312;-76
2022/10/25 00:29:28;;;;;;;;;;;;;;;;;;5093528;28;1383;-77
2022/10/25 00:31:55;;;;;;;;;;;;;;;;;;5093063;28;1015;-76
2022/10/25 00:34:22;;;;;;;;;;;;;;;;;;5092025;28;760;-75
2022/10/25 00:36:48;;;;;;;;;;;;;;;;;;5093401;28;1075;-73
2022/10/25 00:39:14;;;;;;;;;;;;;;;;;;5093310;28;1313;-76
2022/10/25 00:41:40;;;;;;;;;;;;;;;;;;5093252;28;1914;-75
2022/10/25 00:44:25;;;;;;;;;;;;;;;;;;5091893;28;1143;-75
2022/10/25 00:46:52;;;;;;;;;;;;;;;;;;5092859;28;1071;-76
2022/10/25 00:49:20;;;;;;;;;;;;;;;;;;5092889;28;1274;-76
2022/10/25 00:51:46;;;;;;;;;;;;;;;;;;5092996;28;1114;-76
2022/10/25 00:54:13;;;;;;;;;;;;;;;;;;5092792;28;1384;-76
2022/10/25 00:56:39;;;;;;;;;;;;;;;;;;5093063;28;850;-75
2022/10/25 00:59:06;;;;;;;;;;;;;;;;;;5091476;28;1328;-75
2022/10/25 01:01:32;;;;;;;;;;;;;;;;;;5092423;28;1992;-77
2022/10/25 01:03:59;;;;;;;;;;;;;;;;;;5092774;28;969;-77
2022/10/25 01:06:28;;;;;;;;;;;;;;;;;;5092241;28;1118;-75
2022/10/25 01:08:54;;;;;;;;;;;;;;;;;;5092660;28;1282;-75
2022/10/25 01:11:20;;;;;;;;;;;;;;;;;;5091033;28;1166;-74
2022/10/25 01:13:46;;;;;;;;;;;;;;;;;;5092477;28;1047;-76
2022/10/25 01:16:14;;;;;;;;;;;;;;;;;;5092275;28;858;-75
2022/10/25 01:18:43;;;;;;;;;;;;;;;;;;5092268;28;1277;-74
2022/10/25 01:21:24;;;;;;;;;;;;;;;;;;5092150;28;1973;-75
2022/10/25 01:24:08;;;;;;;;;;;;;;;;;;5088567;28;1022;-76
2022/10/25 01:26:45;;;;;;;;;;;;;;;;;;5092255;28;1127;-76
2022/10/25 01:29:17;;;;;;;;;;;;;;;;;;5087337;28;1618;-75
2022/10/25 01:31:45;;;;;;;;;;;;;;;;;;5071735;28;1059;-76
2022/10/25 01:34:15;;;;;;;;;;;;;;;;;;5071728;28;716;-76
2022/10/25 01:36:42;;;;;;;;;;;;;;;;;;5071264;28;881;-77
2022/10/25 01:39:09;;;;;;;;;;;;;;;;;;5077108;28;1996;-76
2022/10/25 01:41:36;;;;;;;;;;;;;;;;;;5085529;28;1910;-76
2022/10/25 01:44:05;;;;;;;;;;;;;;;;;;5089500;28;1153;-76
2022/10/25 01:46:32;;;;;;;;;;;;;;;;;;5092078;28;1079;-75
2022/10/25 01:49:01;;;;;;;;;;;;;;;;;;5091851;28;1332;-76
2022/10/25 01:51:27;;;;;;;;;;;;;;;;;;5089911;22;3796;-75
2022/10/25 01:53:53;;;;;;;;;;;;;;;;;;5071332;28;1143;-75
2022/10/25 01:56:22;;;;;;;;;;;;;;;;;;5071799;28;1064;-75
2022/10/25 01:58:51;;;;;;;;;;;;;;;;;;5071238;28;890;-75
2022/10/25 02:01:19;;;;;;;;;;;;;;;;;;5071213;28;1999;-75
2022/10/25 02:03:47;;;;;;;;;;;;;;;;;;5071243;28;1074;-75
2022/10/25 02:06:17;;;;;;;;;;;;;;;;;;5053252;28;1271;-75
2022/10/25 02:08:44;;;;;;;;;;;;;;;;;;5071389;28;1060;-75
2022/10/25 02:11:11;;;;;;;;;;;;;;;;;;5071247;28;1415;-75
2022/10/25 02:13:41;;;;;;;;;;;;;;;;;;5073736;28;1122;-75
2022/10/25 02:16:08;;;;;;;;;;;;;;;;;;5073693;28;1138;-75
2022/10/25 02:18:35;;;;;;;;;;;;;;;;;;5071291;28;1079;-75
2022/10/25 02:21:01;;;;;;;;;;;;;;;;;;5052731;28;1979;-75
2022/10/25 02:23:29;;;;;;;;;;;;;;;;;;5070857;28;1015;-76
2022/10/25 02:25:55;;;;;;;;;;;;;;;;;;5071133;28;1290;-75
2022/10/25 02:28:22;;;;;;;;;;;;;;;;;;5053064;28;1096;-75
2022/10/25 02:30:48;;;;;;;;;;;;;;;;;;5070886;28;1411;-75
2022/10/25 02:33:14;;;;;;;;;;;;;;;;;;5070712;28;1043;-75
2022/10/25 02:35:40;;;;;;;;;;;;;;;;;;5070676;28;1167;-75
2022/10/25 02:38:07;;;;;;;;;;;;;;;;;;5071023;28;940;-75
2022/10/25 02:40:35;;;;;;;;;;;;;;;;;;5070758;28;1972;-75
2022/10/25 02:43:01;;;;;;;;;;;;;;;;;;5031568;28;1167;-75
2022/10/25 02:45:27;;;;;;;;;;;;;;;;;;5051392;28;1395;-75
2022/10/25 02:47:53;;;;;;;;;;;;;;;;;;5051153;28;1052;-75
2022/10/25 02:50:19;;;;;;;;;;;;;;;;;;5049619;28;1319;-75
2022/10/25 02:52:46;;;;;;;;;;;;;;;;;;5050453;28;1051;-74
2022/10/25 02:55:12;;;;;;;;;;;;;;;;;;5034144;28;1094;-75
2022/10/25 02:57:39;;;;;;;;;;;;;;;;;;5050589;28;1398;-75
2022/10/25 03:00:06;;;;;;;;;;;;;;;;;;5050710;28;1306;-75
2022/10/25 03:02:32;;;;;;;;;;;;;;;;;;5050641;28;1914;-75
2022/10/25 03:04:58;;;;;;;;;;;;;;;;;;5050507;28;996;-75
2022/10/25 03:07:24;;;;;;;;;;;;;;;;;;5050690;28;1075;-74
2022/10/25 03:09:51;;;;;;;;;;;;;;;;;;5050700;28;1304;-75
2022/10/25 03:12:17;;;;;;;;;;;;;;;;;;5049898;28;1087;-76
2022/10/25 03:14:44;;;;;;;;;;;;;;;;;;5050547;28;981;-75
2022/10/25 03:17:10;;;;;;;;;;;;;;;;;;5050521;28;1052;-74
2022/10/25 03:19:37;;;;;;;;;;;;;;;;;;5050484;28;902;-74
2022/10/25 03:22:03;;;;;;;;;;;;;;;;;;5050085;28;2009;-73
2022/10/25 03:24:29;;;;;;;;;;;;;;;;;;5050496;28;1008;-73
2022/10/25 03:26:55;;;;;;;;;;;;;;;;;;5043712;28;1425;-74
2022/10/25 03:29:21;;;;;;;;;;;;;;;;;;5012734;28;1223;-74
2022/10/25 03:31:49;;;;;;;;;;;;;;;;;;5031075;28;1445;-75
2022/10/25 03:34:15;;;;;;;;;;;;;;;;;;5043470;28;1461;-73
2022/10/25 03:36:41;;;;;;;;;;;;;;;;;;5065026;28;1241;-75
2022/10/25 03:39:07;;;;;;;;;;;;;;;;;;5060879;28;1348;-74
2022/10/25 03:41:34;;;;;;;;;;;;;;;;;;5042954;28;1910;-75
2022/10/25 03:44:00;;;;;;;;;;;;;;;;;;5070089;28;1153;-74
2022/10/25 03:46:26;;;;;;;;;;;;;;;;;;5070268;28;1080;-75
2022/10/25 03:48:53;;;;;;;;;;;;;;;;;;5033750;28;1346;-75
2022/10/25 03:51:20;;;;;;;;;;;;;;;;;;5048191;28;1428;-72
2022/10/25 03:53:46;;;;;;;;;;;;;;;;;;5052354;28;1341;-74
2022/10/25 03:56:12;;;;;;;;;;;;;;;;;;5067086;28;1413;-73
2022/10/25 03:58:38;;;;;;;;;;;;;;;;;;5057623;28;1658;-73
2022/10/25 04:01:07;;;;;;;;;;;;;;;;;;5071675;28;1910;-73
2022/10/25 04:03:33;;;;;;;;;;;;;;;;;;5065670;28;1405;-74
2022/10/25 04:06:01;;;;;;;;;;;;;;;;;;5063197;28;1377;-73
2022/10/25 04:08:27;;;;;;;;;;;;;;;;;;5070789;28;988;-73
2022/10/25 04:10:53;;;;;;;;;;;;;;;;;;5065518;28;1493;-73
2022/10/25 04:13:19;;;;;;;;;;;;;;;;;;5068698;28;1393;-73
2022/10/25 04:15:46;;;;;;;;;;;;;;;;;;5056767;28;1362;-74
2022/10/25 04:18:12;;;;;;;;;;;;;;;;;;5072376;28;1138;-73
2022/10/25 04:20:38;;;;;;;;;;;;;;;;;;5068207;28;1347;-74
2022/10/25 04:23:06;;;;;;;;;;;;;;;;;;5072622;28;2036;-73
2022/10/25 04:25:32;;;;;;;;;;;;;;;;;;5058958;28;1092;-74
2022/10/25 04:27:58;;;;;;;;;;;;;;;;;;5052858;28;1240;-74
2022/10/25 04:30:25;;;;;;;;;;;;;;;;;;5052526;28;1397;-73
2022/10/25 04:32:51;;;;;;;;;;;;;;;;;;5052488;28;1252;-74
2022/10/25 04:35:17;;;;;;;;;;;;;;;;;;5052854;28;1031;-75
2022/10/25 04:37:43;;;;;;;;;;;;;;;;;;5053201;28;1162;-74
2022/10/25 04:40:11;;;;;;;;;;;;;;;;;;5052878;28;1379;-74
2022/10/25 04:42:37;;;;;;;;;;;;;;;;;;5052767;28;1918;-73
2022/10/25 04:45:04;;;;;;;;;;;;;;;;;;5052874;28;1084;-74
2022/10/25 04:47:30;;;;;;;;;;;;;;;;;;5053152;28;893;-74
2022/10/25 04:49:57;;;;;;;;;;;;;;;;;;5052726;28;1389;-73
2022/10/25 04:52:23;;;;;;;;;;;;;;;;;;5052706;28;1060;-74
2022/10/25 04:54:49;;;;;;;;;;;;;;;;;;5035102;28;1505;-74
2022/10/25 04:57:16;;;;;;;;;;;;;;;;;;5052244;28;1133;-74
2022/10/25 04:59:43;;;;;;;;;;;;;;;;;;5051995;28;1389;-73
2022/10/25 05:02:09;;;;;;;;;;;;;;;;;;5051919;28;1949;-75
2022/10/25 05:04:36;;;;;;;;;;;;;;;;;;5052078;28;1256;-74
2022/10/25 05:07:02;;;;;;;;;;;;;;;;;;5034704;28;1562;-74
2022/10/25 05:09:28;;;;;;;;;;;;;;;;;;5052162;28;1114;-75
2022/10/25 05:11:54;;;;;;;;;;;;;;;;;;5050855;28;1506;-75
2022/10/25 05:14:22;;;;;;;;;;;;;;;;;;5051777;28;1275;-73
2022/10/25 05:16:48;;;;;;;;;;;;;;;;;;5033461;28;1264;-75
2022/10/25 05:19:14;;;;;;;;;;;;;;;;;;5051922;28;1200;-76
2022/10/25 05:21:40;;;;;;;;;;;;;;;;;;5049445;28;1946;-75
2022/10/25 05:24:06;;;;;;;;;;;;;;;;;;5051716;28;1272;-75
2022/10/25 05:26:33;;;;;;;;;;;;;;;;;;5052013;28;1176;-75
2022/10/25 05:28:59;;;;;;;;;;;;;;;;;;5052082;28;716;-74
2022/10/25 05:31:27;;;;;;;;;;;;;;;;;;5052071;28;1404;-74
2022/10/25 05:33:54;;;;;;;;;;;;;;;;;;5052020;28;985;-75
2022/10/25 05:36:21;;;;;;;;;;;;;;;;;;5051723;28;1072;-74
2022/10/25 05:38:47;;;;;;;;;;;;;;;;;;5034003;28;1135;-74
2022/10/25 05:41:14;;;;;;;;;;;;;;;;;;5051267;28;1914;-75
2022/10/25 05:43:40;;;;;;;;;;;;;;;;;;5051919;28;1067;-75
2022/10/25 05:46:07;;;;;;;;;;;;;;;;;;5051733;28;1072;-75
2022/10/25 05:48:35;;;;;;;;;;;;;;;;;;5052357;28;1068;-75
2022/10/25 05:51:08;;;;;;;;;;;;;;;;;;5053956;28;1398;-75
2022/10/25 05:53:35;;;;;;;;;;;;;;;;;;5058452;28;1068;-75
2022/10/25 05:56:01;;;;;;;;;;;;;;;;;;5056627;28;1108;-74
2022/10/25 05:58:27;;;;;;;;;;;;;;;;;;5051446;28;1040;-74
2022/10/25 06:00:53;;;;;;;;;;;;;;;;;;5052194;28;1408;-74
2022/10/25 06:03:19;;;;;;;;;;;;;;;;;;5050997;28;1985;-76
2022/10/25 06:05:47;;;;;;;;;;;;;;;;;;5051606;28;1083;-75
2022/10/25 06:08:13;;;;;;;;;;;;;;;;;;5051316;28;973;-75
2022/10/25 06:10:39;;;;;;;;;;;;;;;;;;5051259;28;1312;-75
2022/10/25 06:13:05;;;;;;;;;;;;;;;;;;5050789;28;1142;-74
2022/10/25 06:15:32;;;;;;;;;;;;;;;;;;5051357;28;1068;-75
2022/10/25 06:17:58;;;;;;;;;;;;;;;;;;5033354;28;1472;-74
2022/10/25 06:20:24;;;;;;;;;;;;;;;;;;5051015;28;1320;-75
2022/10/25 06:22:51;;;;;;;;;;;;;;;;;;5050827;28;1969;-74
2022/10/25 06:25:18;;;;;;;;;;;;;;;;;;5051340;28;965;-75
2022/10/25 06:27:44;;;;;;;;;;;;;;;;;;5033219;28;1112;-75
2022/10/25 06:30:10;;;;;;;;;;;;;;;;;;5050637;28;1399;-75
2022/10/25 06:32:37;;;;;;;;;;;;;;;;;;5033057;28;1406;-75
2022/10/25 06:35:03;;;;;;;;;;;;;;;;;;5033054;28;1196;-75
2022/10/25 06:37:29;;;;;;;;;;;;;;;;;;5051051;28;1009;-75
2022/10/25 06:39:57;;;;;;;;;;;;;;;;;;5051011;28;1315;-75
2022/10/25 06:42:23;;;;;;;;;;;;;;;;;;5050795;28;1928;-75
2022/10/25 06:44:49;;;;;;;;;;;;;;;;;;5050987;28;934;-75
2022/10/25 06:47:15;;;;;;;;;;;;;;;;;;5051482;28;1076;-76
2022/10/25 06:49:42;;;;;;;;;;;;;;;;;;5050528;28;1317;-74
2022/10/25 06:52:08;;;;;;;;;;;;;;;;;;5050468;28;1143;-74
2022/10/25 06:54:34;;;;;;;;;;;;;;;;;;5050671;28;1131;-73
2022/10/25 06:57:02;;;;;;;;;;;;;;;;;;5049096;28;994;-74
2022/10/25 06:59:28;;;;;;;;;;;;;;;;;;5049798;28;1175;-74
2022/10/25 07:01:56;;;;;;;;;;;;;;;;;;5050313;28;1934;-75
2022/10/25 07:04:22;;;;;;;;;;;;;;;;;;5064803;28;1065;-74
2022/10/25 07:06:48;;;;;;;;;;;;;;;;;;5070529;28;806;-75
2022/10/25 07:09:14;;;;;;;;;;;;;;;;;;5070297;28;1135;-75
2022/10/25 07:11:40;;;;;;;;;;;;;;;;;;5052369;28;1586;-75
2022/10/25 07:14:09;;;;;;;;;;;;;;;;;;5070329;28;1007;-74
2022/10/25 07:16:35;;;;;;;;;;;;;;;;;;5070592;28;1004;-74
2022/10/25 07:19:02;;;;;;;;;;;;;;;;;;5065171;28;1540;-74
2022/10/25 07:21:28;;;;;;;;;;;;;;;;;;5030997;28;1504;-75
2022/10/25 07:23:54;;;;;;;;;;;;;;;;;;5042562;28;1981;-76
2022/10/25 07:26:21;;;;;;;;;;;;;;;;;;5049828;28;1303;-75
2022/10/25 07:28:48;;;;;;;;;;;;;;;;;;5049678;28;1264;-74
2022/10/25 07:31:16;;;;;;;;;;;;;;;;;;5049808;28;1399;-75
2022/10/25 07:33:43;;;;;;;;;;;;;;;;;;5050361;28;1068;-75
2022/10/25 07:36:09;;;;;;;;;;;;;;;;;;5052350;28;1068;-73
2022/10/25 07:38:35;;;;;;;;;;;;;;;;;;5054348;28;893;-75
2022/10/25 07:41:01;;;;;;;;;;;;;;;;;;5031315;28;2009;-75
2022/10/25 07:43:28;;;;;;;;;;;;;;;;;;5062020;28;1983;-75
2022/10/25 07:45:54;;;;;;;;;;;;;;;;;;5070258;28;1245;-74
2022/10/25 07:48:22;;;;;;;;;;;;;;;;;;5073969;28;1392;-74
2022/10/25 07:50:48;;;;;;;;;;;;;;;;;;5073616;28;1439;-75
2022/10/25 07:53:14;;;;;;;;;;;;;;;;;;5073693;28;856;-75
2022/10/25 07:55:40;;;;;;;;;;;;;;;;;;5073784;28;1126;-73
2022/10/25 07:58:07;;;;;;;;;;;;;;;;;;5114761;22;2104;-72
2022/10/25 08:00:34;;;;;;;;;;;;;;;;;;5113841;28;1407;-72
2022/10/25 08:03:00;;;;;;;;;;;;;;;;;;5113873;28;1918;-72
2022/10/25 08:05:27;;;;;;;;;;;;;;;;;;5113670;28;1142;-70
2022/10/25 08:07:54;;;;;;;;;;;;;;;;;;5114305;28;1328;-72
2022/10/25 08:10:20;;;;;;;;;;;;;;;;;;5112769;28;1113;-72
2022/10/25 08:12:47;;;;;;;;;;;;;;;;;;5112235;28;1138;-70
2022/10/25 08:15:13;;;;;;;;;;;;;;;;;;5113957;28;1126;-71
2022/10/25 08:17:39;;;;;;;;;;;;;;;;;;5113724;28;1324;-71
2022/10/25 08:20:06;;;;;;;;;;;;;;;;;;5113907;28;988;-72
2022/10/25 08:22:33;;;;;;;;;;;;;;;;;;5113228;28;1913;-72
2022/10/25 08:25:00;;;;;;;;;;;;;;;;;;5113806;28;837;-72
2022/10/25 08:27:26;;;;;;;;;;;;;;;;;;5113623;28;1391;-72
2022/10/25 08:29:52;;;;;;;;;;;;;;;;;;5112271;28;1172;-72
2022/10/25 08:32:18;;;;;;;;;;;;;;;;;;5113602;28;1010;-72
2022/10/25 08:34:45;;;;;;;;;;;;;;;;;;5113579;28;1015;-71
2022/10/25 08:37:11;;;;;;;;;;;;;;;;;;5113656;28;1272;-72
2022/10/25 08:39:38;;;;;;;;;;;;;;;;;;5113709;28;1154;-72
2022/10/25 08:42:04;;;;;;;;;;;;;;;;;;5111842;28;1273;-72
2022/10/25 08:44:33;;;;;;;;;;;;;;;;;;5111866;28;822;-72
2022/10/25 08:47:00;;;;;;;;;;;;;;;;;;5113484;28;1396;-71
2022/10/25 08:49:27;;;;;;;;;;;;;;;;;;5113527;28;826;-72
2022/10/25 08:51:54;;;;;;;;;;;;;;;;;;5112787;28;956;-72
2022/10/25 08:54:22;;;;;;;;;;;;;;;;;;5113137;28;1123;-72
2022/10/25 08:56:49;;;;;;;;;;;;;;;;;;5112699;28;1317;-71
2022/10/25 08:59:17;;;;;;;;;;;;;;;;;;5094991;28;721;-71
2022/10/25 09:01:43;;;;;;;;;;;;;;;;;;5092094;28;1052;-71
2022/10/25 09:04:10;;;;;;;;;;;;;;;;;;5092523;28;1981;-70
2022/10/25 09:06:38;;;;;;;;;;;;;;;;;;5092178;28;1399;-71
2022/10/25 09:09:15;;;;;;;;;;;;;;;;;;5092652;28;1127;-70
2022/10/25 09:11:48;;;;;;;;;;;;;;;;;;5088699;28;1471;-72
2022/10/25 09:14:17;;;;;;;;;;;;;;;;;;5092305;28;1138;-71
2022/10/25 09:16:49;;;;;;;;;;;;;;;;;;5091811;28;1419;-70
2022/10/25 09:19:17;;;;;;;;;;;;;;;;;;5091960;28;1286;-71
2022/10/25 09:21:46;;;;;;;;;;;;;;;;;;5089987;28;1160;-71
2022/10/25 09:24:13;;;;;;;;;;;;;;;;;;5092181;28;1981;-72
2022/10/25 09:26:40;;;;;;;;;;;;;;;;;;5091770;28;1272;-70
2022/10/25 09:29:09;;;;;;;;;;;;;;;;;;5092221;28;1138;-71
2022/10/25 09:31:37;;;;;;;;;;;;;;;;;;5090789;28;1139;-69
2022/10/25 09:34:04;;;;;;;;;;;;;;;;;;5081010;28;1322;-71
2022/10/25 09:36:33;;;;;;;;;;;;;;;;;;5080591;28;1373;-71
2022/10/25 09:38:59;;;;;;;;;;;;;;;;;;5085923;28;1278;-71
2022/10/25 09:41:26;;;;;;;;;;;;;;;;;;5091840;28;834;-71
2022/10/25 09:43:53;;;;;;;;;;;;;;;;;;5091622;28;1979;-70
2022/10/25 09:46:21;;;;;;;;;;;;;;;;;;5091922;28;1328;-70
2022/10/25 09:48:50;;;;;;;;;;;;;;;;;;5091444;28;1106;-70
2022/10/25 09:51:17;;;;;;;;;;;;;;;;;;5091010;28;860;-70
2022/10/25 09:53:43;;;;;;;;;;;;;;;;;;5092072;28;1079;-71
2022/10/25 09:56:10;;;;;;;;;;;;;;;;;;5110546;28;1399;-71
2022/10/25 09:58:37;;;;;;;;;;;;;;;;;;5111010;28;1422;-70
2022/10/25 10:01:04;;;;;;;;;;;;;;;;;;5111763;28;997;-71
2022/10/25 10:03:31;;;;;;;;;;;;;;;;;;5111650;28;1918;-69
2022/10/25 10:05:59;;;;;;;;;;;;;;;;;;5106119;28;2080;-69
2022/10/25 10:08:25;;;;;;;;;;;;;;;;;;5090898;28;1360;-70
2022/10/25 10:10:52;;;;;;;;;;;;;;;;;;5091328;28;876;-70
2022/10/25 10:13:20;;;;;;;;;;;;;;;;;;5090852;28;972;-70
2022/10/25 10:15:51;;;;;;;;;;;;;;;;;;5090973;28;953;-71
2022/10/25 10:18:27;;;;;;;;;;;;;;;;;;5091344;28;1329;-70
2022/10/25 10:21:01;;;;;;;;;;;;;;;;;;5091030;28;1142;-71
2022/10/25 10:23:28;;;;;;;;;;;;;;;;;;5090802;28;1971;-71
2022/10/25 10:25:54;;;;;;;;;;;;;;;;;;5090922;28;1114;-71
2022/10/25 10:28:21;;;;;;;;;;;;;;;;;;5091694;28;1407;-71
2022/10/25 10:30:52;;;;;;;;;;;;;;;;;;5095827;28;2044;-71
2022/10/25 10:33:18;;;;;;;;;;;;;;;;;;5110983;28;1151;-71
2022/10/25 10:35:44;;;;;;;;;;;;;;;;;;5110053;28;1247;-70
2022/10/25 10:38:17;;;;;;;;;;;;;;;;;;5111207;28;1314;-70
2022/10/25 10:40:44;;;;;;;;;;;;;;;;;;5091544;28;1054;-68
2022/10/25 10:43:21;;;;;;;;;;;;;;;;;;5089520;28;1902;-69
2022/10/25 10:45:48;;;;;;;;;;;;;;;;;;5090823;28;964;-69
2022/10/25 10:48:15;;;;;;;;;;;;;;;;;;5090957;28;1354;-68
2022/10/25 10:50:41;;;;;;;;;;;;;;;;;;5090676;28;1017;-69
2022/10/25 10:53:14;;;;;;;;;;;;;;;;;;5090477;28;1345;-69
2022/10/25 10:55:47;;;;;;;;;;;;;;;;;;5090638;28;802;-69
2022/10/25 10:58:14;;;;;;;;;;;;;;;;;;5090345;28;1419;-69
2022/10/25 11:00:40;;;;;;;;;;;;;;;;;;5090761;28;790;-69
2022/10/25 11:03:10;;;;;;;;;;;;;;;;;;5090332;28;1918;-69
2022/10/25 11:05:37;;;;;;;;;;;;;;;;;;5088540;28;1160;-70
2022/10/25 11:08:13;;;;;;;;;;;;;;;;;;5087612;28;1570;-70
2022/10/25 11:10:39;;;;;;;;;;;;;;;;;;5092128;28;1075;-70
2022/10/25 11:13:08;;;;;;;;;;;;;;;;;;5094489;28;964;-70
2022/10/25 11:15:38;;;;;;;;;;;;;;;;;;5093580;28;1031;-70
2022/10/25 11:18:04;;;;;;;;;;;;;;;;;;5094124;28;1339;-70
2022/10/25 11:20:32;;;;;;;;;;;;;;;;;;5093779;28;1079;-69
2022/10/25 11:22:58;;;;;;;;;;;;;;;;;;5093940;28;1969;-69
2022/10/25 11:25:29;;;;;;;;;;;;;;;;;;5094318;28;1118;-70
2022/10/25 11:27:59;;;;;;;;;;;;;;;;;;5094095;28;1436;-70
2022/10/25 11:30:27;;;;;;;;;;;;;;;;;;5094503;28;1031;-70
2022/10/25 11:33:12;;;;;;;;;;;;;;;;;;5093568;28;988;-70
2022/10/25 11:35:45;;;;;;;;;;;;;;;;;;5092924;28;2072;-70
2022/10/25 11:38:12;;;;;;;;;;;;;;;;;;5094468;28;1352;-69
2022/10/25 11:40:39;;;;;;;;;;;;;;;;;;5094182;28;1047;-69
2022/10/25 11:43:09;;;;;;;;;;;;;;;;;;5093949;28;2257;-69
2022/10/25 11:45:38;;;;;;;;;;;;;;;;;;5092725;28;972;-69
2022/10/25 11:48:08;;;;;;;;;;;;;;;;;;5096070;28;1511;-70
2022/10/25 11:50:39;;;;;;;;;;;;;;;;;;5094153;28;1131;-70
2022/10/25 11:53:10;;;;;;;;;;;;;;;;;;5093438;28;853;-69
2022/10/25 11:55:38;;;;;;;;;;;;;;;;;;5093470;28;877;-69
2022/10/25 11:58:06;;;;;;;;;;;;;;;;;;5092290;28;1410;-69
2022/10/25 12:00:35;;;;;;;;;;;;;;;;;;5093989;28;1023;-69
2022/10/25 12:03:05;;;;;;;;;;;;;;;;;;5093871;28;1082;-70
2022/10/25 12:05:32;;;;;;;;;;;;;;;;;;5093698;28;1981;-70
2022/10/25 12:08:02;;;;;;;;;;;;;;;;;;5093882;28;1354;-69
2022/10/25 12:10:30;;;;;;;;;;;;;;;;;;5093666;28;992;-70
2022/10/25 12:12:56;;;;;;;;;;;;;;;;;;5093809;28;1114;-71
2022/10/25 12:15:23;;;;;;;;;;;;;;;;;;5095066;28;1043;-70
2022/10/25 12:17:49;;;;;;;;;;;;;;;;;;5095011;28;1313;-70
2022/10/25 12:20:20;;;;;;;;;;;;;;;;;;5095114;28;1126;-70
2022/10/25 12:22:47;;;;;;;;;;;;;;;;;;5094064;28;1079;-69
2022/10/25 12:25:14;;;;;;;;;;;;;;;;;;5094953;28;1985;-70
2022/10/25 12:27:40;;;;;;;;;;;;;;;;;;5094918;28;1364;-70
2022/10/25 12:30:13;;;;;;;;;;;;;;;;;;5093440;28;1264;-70
2022/10/25 12:32:40;;;;;;;;;;;;;;;;;;5094368;28;1062;-70
2022/10/25 12:35:10;;;;;;;;;;;;;;;;;;5094658;28;1074;-69
2022/10/25 12:37:38;;;;;;;;;;;;;;;;;;5073892;28;1393;-70
2022/10/25 12:40:05;;;;;;;;;;;;;;;;;;5073563;28;918;-70
2022/10/25 12:42:32;;;;;;;;;;;;;;;;;;5074066;28;992;-70
2022/10/25 12:45:02;;;;;;;;;;;;;;;;;;5083925;28;1976;-70
2022/10/25 12:47:32;;;;;;;;;;;;;;;;;;5080603;28;1489;-70
2022/10/25 12:50:17;;;;;;;;;;;;;;;;;;5081945;28;1187;-70
2022/10/25 12:52:55;;;;;;;;;;;;;;;;;;5089482;28;1335;-70
2022/10/25 12:55:26;;;;;;;;;;;;;;;;;;5094447;28;1131;-71
2022/10/25 12:57:55;;;;;;;;;;;;;;;;;;5082693;28;1461;-70
2022/10/25 13:00:21;;;;;;;;;;;;;;;;;;5088315;28;1421;-71
2022/10/25 13:03:02;;;;;;;;;;;;;;;;;;5092456;28;1205;-71
2022/10/25 13:05:31;;;;;;;;;;;;;;;;;;5083512;28;1975;-71
2022/10/25 13:07:59;;;;;;;;;;;;;;;;;;5073747;28;1306;-71
2022/10/25 13:10:25;;;;;;;;;;;;;;;;;;5073832;28;1047;-71
2022/10/25 13:12:58;;;;;;;;;;;;;;;;;;5073385;28;850;-72
2022/10/25 13:15:24;;;;;;;;;;;;;;;;;;5074040;28;1060;-71
2022/10/25 13:18:01;;;;;;;;;;;;;;;;;;5073559;28;1316;-70
2022/10/25 13:20:54;;;;;;;;;;;;;;;;;;5073810;28;1135;-71
2022/10/25 13:23:39;;;;;;;;;;;;;;;;;;5036905;28;1064;-71
2022/10/25 13:26:07;;;;;;;;;;;;;;;;;;5073221;28;948;-71
2022/10/25 13:28:42;;;;;;;;;;;;;;;;;;5073224;28;1348;-71
2022/10/25 13:31:27;;;;;;;;;;;;;;;;;;5073541;28;1075;-71
2022/10/25 13:34:08;;;;;;;;;;;;;;;;;;5071059;28;1133;-70
2022/10/25 13:36:50;;;;;;;;;;;;;;;;;;5071529;28;1297;-71
2022/10/25 13:39:17;;;;;;;;;;;;;;;;;;5070831;28;1021;-70
2022/10/25 13:41:45;;;;;;;;;;;;;;;;;;5072620;28;1055;-71
2022/10/25 13:44:17;;;;;;;;;;;;;;;;;;5073541;28;1959;-71
2022/10/25 13:46:43;;;;;;;;;;;;;;;;;;5071408;28;1325;-71
2022/10/25 13:49:25;;;;;;;;;;;;;;;;;;5071583;28;1084;-70
2022/10/25 13:51:53;;;;;;;;;;;;;;;;;;5072310;28;1106;-71
2022/10/25 13:54:20;;;;;;;;;;;;;;;;;;5072845;28;1118;-71
2022/10/25 13:56:51;;;;;;;;;;;;;;;;;;5075357;28;1317;-71
2022/10/25 13:59:36;;;;;;;;;;;;;;;;;;5120532;22;3569;-76
2022/10/25 14:02:12;;;;;;;;;;;;;;;;;;5109809;28;1073;-77
2022/10/25 14:04:39;;;;;;;;;;;;;;;;;;5113236;28;1968;-77
2022/10/25 14:07:24;;;;;;;;;;;;;;;;;;5113144;28;1012;-77
2022/10/25 14:09:50;;;;;;;;;;;;;;;;;;5094986;28;1323;-79
2022/10/25 14:12:17;;;;;;;;;;;;;;;;;;5113047;28;766;-78
2022/10/25 14:14:45;;;;;;;;;;;;;;;;;;5111869;28;1202;-76
2022/10/25 14:17:14;;;;;;;;;;;;;;;;;;5098268;28;1631;-77
2022/10/25 14:19:41;;;;;;;;;;;;;;;;;;5072733;28;1318;-77
2022/10/25 14:22:11;;;;;;;;;;;;;;;;;;5089315;28;1120;-76
2022/10/25 14:24:37;;;;;;;;;;;;;;;;;;5092474;28;1913;-76
2022/10/25 14:27:03;;;;;;;;;;;;;;;;;;5092815;28;799;-76
2022/10/25 14:29:31;;;;;;;;;;;;;;;;;;5092973;28;1362;-77
2022/10/25 14:31:57;;;;;;;;;;;;;;;;;;5092271;28;1079;-78
2022/10/25 14:34:24;;;;;;;;;;;;;;;;;;5092389;28;925;-77
2022/10/25 14:36:50;;;;;;;;;;;;;;;;;;5074902;28;1289;-78
2022/10/25 14:39:17;;;;;;;;;;;;;;;;;;5093220;28;1426;-78
2022/10/25 14:41:49;;;;;;;;;;;;;;;;;;5092636;28;799;-77
2022/10/25 14:44:24;;;;;;;;;;;;;;;;;;5092100;28;1906;-77
2022/10/25 14:46:52;;;;;;;;;;;;;;;;;;5092501;28;767;-77
2022/10/25 14:49:18;;;;;;;;;;;;;;;;;;5074414;28;1346;-77
2022/10/25 14:51:44;;;;;;;;;;;;;;;;;;5091129;28;2236;-76
2022/10/25 14:54:22;;;;;;;;;;;;;;;;;;5091594;28;1121;-77
2022/10/25 14:56:49;;;;;;;;;;;;;;;;;;5074319;28;1250;-77
2022/10/25 14:59:16;;;;;;;;;;;;;;;;;;5089321;28;1555;-77
2022/10/25 15:01:51;;;;;;;;;;;;;;;;;;5072240;28;600;-78
2022/10/25 15:04:19;;;;;;;;;;;;;;;;;;5054143;28;1910;-78
2022/10/25 15:06:47;;;;;;;;;;;;;;;;;;5071385;28;1395;-77
2022/10/25 15:09:15;;;;;;;;;;;;;;;;;;5053888;28;1315;-78
2022/10/25 15:11:41;;;;;;;;;;;;;;;;;;5062604;28;1335;-77
2022/10/25 15:14:14;;;;;;;;;;;;;;;;;;5092928;28;1459;-77
2022/10/25 15:16:40;;;;;;;;;;;;;;;;;;5074190;28;1175;-77
2022/10/25 15:19:16;;;;;;;;;;;;;;;;;;5091954;28;1302;-77
2022/10/25 15:21:43;;;;;;;;;;;;;;;;;;5091945;28;1146;-77
2022/10/25 15:24:13;;;;;;;;;;;;;;;;;;5091895;28;932;-77
2022/10/25 15:26:39;;;;;;;;;;;;;;;;;;5092393;28;1131;-77
2022/10/25 15:29:05;;;;;;;;;;;;;;;;;;5091667;28;1324;-76
2022/10/25 15:31:32;;;;;;;;;;;;;;;;;;5091843;28;1075;-76
2022/10/25 15:33:59;;;;;;;;;;;;;;;;;;5092097;28;805;-77
2022/10/25 15:36:27;;;;;;;;;;;;;;;;;;5092208;28;1101;-78
2022/10/25 15:38:56;;;;;;;;;;;;;;;;;;5092211;28;1312;-77
2022/10/25 15:41:23;;;;;;;;;;;;;;;;;;5091924;28;1075;-76
2022/10/25 15:43:49;;;;;;;;;;;;;;;;;;5073819;28;1225;-76
2022/10/25 15:46:18;;;;;;;;;;;;;;;;;;5091653;28;1914;-77
2022/10/25 15:48:45;;;;;;;;;;;;;;;;;;5091941;28;1309;-77
2022/10/25 15:51:11;;;;;;;;;;;;;;;;;;5091581;28;833;-76
2022/10/25 15:53:38;;;;;;;;;;;;;;;;;;5091880;28;747;-77
2022/10/25 15:56:05;;;;;;;;;;;;;;;;;;5092020;28;1142;-75
2022/10/25 15:58:31;;;;;;;;;;;;;;;;;;5076088;28;1355;-77
2022/10/25 16:00:57;;;;;;;;;;;;;;;;;;5077072;28;1405;-77
2022/10/25 16:03:24;;;;;;;;;;;;;;;;;;5094936;28;920;-77
2022/10/25 16:05:50;;;;;;;;;;;;;;;;;;5095179;28;1902;-77
2022/10/25 16:08:17;;;;;;;;;;;;;;;;;;5095205;28;1107;-76
2022/10/25 16:10:44;;;;;;;;;;;;;;;;;;5095246;28;1281;-77
2022/10/25 16:13:11;;;;;;;;;;;;;;;;;;5081806;28;1143;-77
2022/10/25 16:15:37;;;;;;;;;;;;;;;;;;5081744;28;1162;-78
2022/10/25 16:18:03;;;;;;;;;;;;;;;;;;5075633;28;1096;-78
2022/10/25 16:20:30;;;;;;;;;;;;;;;;;;5095739;28;1311;-78
2022/10/25 16:22:56;;;;;;;;;;;;;;;;;;5089375;28;1506;-78
2022/10/25 16:25:23;;;;;;;;;;;;;;;;;;5082718;28;1918;-80
2022/10/25 16:27:50;;;;;;;;;;;;;;;;;;5074750;28;1479;-78
2022/10/25 16:30:17;;;;;;;;;;;;;;;;;;5077191;28;1385;-79
2022/10/25 16:32:44;;;;;;;;;;;;;;;;;;5092790;28;924;-79
2022/10/25 16:35:10;;;;;;;;;;;;;;;;;;5074850;28;1419;-77
2022/10/25 16:37:36;;;;;;;;;;;;;;;;;;5093149;28;1123;-77
2022/10/25 16:40:03;;;;;;;;;;;;;;;;;;5074497;28;1317;-78
2022/10/25 16:42:30;;;;;;;;;;;;;;;;;;5087366;28;1271;-78
2022/10/25 16:44:58;;;;;;;;;;;;;;;;;;5072242;28;1913;-78
2022/10/25 16:47:24;;;;;;;;;;;;;;;;;;5072592;28;862;-79
2022/10/25 16:49:50;;;;;;;;;;;;;;;;;;5072352;28;1398;-78
2022/10/25 16:52:17;;;;;;;;;;;;;;;;;;5082913;28;1432;-79
2022/10/25 16:54:43;;;;;;;;;;;;;;;;;;5075090;28;1121;-79
2022/10/25 16:57:09;;;;;;;;;;;;;;;;;;5092500;28;992;-78
2022/10/25 16:59:35;;;;;;;;;;;;;;;;;;5092191;28;1325;-78
2022/10/25 17:02:03;;;;;;;;;;;;;;;;;;5091931;28;1091;-78
2022/10/25 17:04:29;;;;;;;;;;;;;;;;;;5092774;28;1068;-80
2022/10/25 17:06:55;;;;;;;;;;;;;;;;;;5091435;28;1987;-77
2022/10/25 17:09:21;;;;;;;;;;;;;;;;;;5075028;28;1313;-80